sensor_id;sensor_type;location;lat;lon;timestamp;P1;durP1;ratioP1;P2;durP2;ratioP2
85152;SDS011;75520;43.358;19.362;2024-02-21T00:00:56;15.35;;;7.90;;
85152;SDS011;75520;43.358;19.362;2024-02-21T00:03:22;15.30;;;8.30;;
85152;SDS011;75520;43.358;19.362;2024-02-21T00:05:48;14.77;;;8.18;;
85152;SDS011;75520;43.358;19.362;2024-02-21T00:08:14;14.98;;;8.55;;
85152;SDS011;75520;43.358;19.362;2024-02-21T00:10:39;17.98;;;8.57;;
85152;SDS011;75520;43.358;19.362;2024-02-21T00:13:05;15.52;;;8.60;;
85152;SDS011;75520;43.358;19.362;2024-02-21T00:15:30;16.30;;;8.35;;
85152;SDS011;75520;43.358;19.362;2024-02-21T00:17:56;24.35;;;9.52;;
85152;SDS011;75520;43.358;19.362;2024-02-21T00:20:21;16.58;;;7.85;;
85152;SDS011;75520;43.358;19.362;2024-02-21T00:22:47;15.32;;;7.70;;
85152;SDS011;75520;43.358;19.362;2024-02-21T00:25:14;18.52;;;9.13;;
85152;SDS011;75520;43.358;19.362;2024-02-21T00:27:39;17.95;;;8.77;;
85152;SDS011;75520;43.358;19.362;2024-02-21T00:30:05;21.27;;;10.10;;
85152;SDS011;75520;43.358;19.362;2024-02-21T00:32:31;21.75;;;9.13;;
85152;SDS011;75520;43.358;19.362;2024-02-21T00:35:00;13.93;;;7.63;;
85152;SDS011;75520;43.358;19.362;2024-02-21T00:37:26;13.93;;;6.45;;
85152;SDS011;75520;43.358;19.362;2024-02-21T00:39:53;15.07;;;8.38;;
85152;SDS011;75520;43.358;19.362;2024-02-21T00:42:19;17.45;;;8.63;;
85152;SDS011;75520;43.358;19.362;2024-02-21T00:44:44;18.75;;;8.98;;
85152;SDS011;75520;43.358;19.362;2024-02-21T00:47:10;16.65;;;8.95;;
85152;SDS011;75520;43.358;19.362;2024-02-21T00:49:36;14.93;;;9.02;;
85152;SDS011;75520;43.358;19.362;2024-02-21T00:52:01;15.90;;;8.93;;
85152;SDS011;75520;43.358;19.362;2024-02-21T00:54:27;27.05;;;9.73;;
85152;SDS011;75520;43.358;19.362;2024-02-21T00:56:52;17.40;;;9.50;;
85152;SDS011;75520;43.358;19.362;2024-02-21T00:59:18;19.02;;;9.60;;
85152;SDS011;75520;43.358;19.362;2024-02-21T01:01:43;21.10;;;10.10;;
85152;SDS011;75520;43.358;19.362;2024-02-21T01:04:09;31.83;;;17.67;;
85152;SDS011;75520;43.358;19.362;2024-02-21T01:06:35;29.50;;;15.05;;
85152;SDS011;75520;43.358;19.362;2024-02-21T01:09:00;19.50;;;10.25;;
85152;SDS011;75520;43.358;19.362;2024-02-21T01:11:26;17.05;;;9.35;;
85152;SDS011;75520;43.358;19.362;2024-02-21T01:13:52;20.50;;;9.32;;
85152;SDS011;75520;43.358;19.362;2024-02-21T01:16:18;19.45;;;9.00;;
85152;SDS011;75520;43.358;19.362;2024-02-21T01:18:43;18.20;;;9.30;;
85152;SDS011;75520;43.358;19.362;2024-02-21T01:21:09;17.48;;;8.32;;
85152;SDS011;75520;43.358;19.362;2024-02-21T01:23:35;20.50;;;9.38;;
85152;SDS011;75520;43.358;19.362;2024-02-21T01:26:02;17.30;;;9.18;;
85152;SDS011;75520;43.358;19.362;2024-02-21T01:28:28;19.25;;;9.65;;
85152;SDS011;75520;43.358;19.362;2024-02-21T01:30:54;15.13;;;6.95;;
85152;SDS011;75520;43.358;19.362;2024-02-21T01:33:20;14.27;;;7.05;;
85152;SDS011;75520;43.358;19.362;2024-02-21T01:35:46;14.52;;;7.22;;
85152;SDS011;75520;43.358;19.362;2024-02-21T01:38:12;17.63;;;6.90;;
85152;SDS011;75520;43.358;19.362;2024-02-21T01:40:38;13.68;;;6.55;;
85152;SDS011;75520;43.358;19.362;2024-02-21T01:43:04;13.95;;;7.95;;
85152;SDS011;75520;43.358;19.362;2024-02-21T01:45:48;13.82;;;7.53;;
85152;SDS011;75520;43.358;19.362;2024-02-21T01:48:16;13.75;;;6.95;;
85152;SDS011;75520;43.358;19.362;2024-02-21T01:50:47;14.10;;;6.55;;
85152;SDS011;75520;43.358;19.362;2024-02-21T01:53:14;18.60;;;7.25;;
85152;SDS011;75520;43.358;19.362;2024-02-21T01:55:46;15.15;;;7.75;;
85152;SDS011;75520;43.358;19.362;2024-02-21T01:58:16;10.90;;;6.50;;
85152;SDS011;75520;43.358;19.362;2024-02-21T02:00:42;11.70;;;6.43;;
85152;SDS011;75520;43.358;19.362;2024-02-21T02:03:12;11.45;;;5.80;;
85152;SDS011;75520;43.358;19.362;2024-02-21T02:05:47;16.80;;;7.38;;
85152;SDS011;75520;43.358;19.362;2024-02-21T02:10:40;39.63;;;12.38;;
85152;SDS011;75520;43.358;19.362;2024-02-21T02:13:06;16.67;;;6.63;;
85152;SDS011;75520;43.358;19.362;2024-02-21T02:15:42;39.75;;;18.65;;
85152;SDS011;75520;43.358;19.362;2024-02-21T02:18:11;21.98;;;11.50;;
85152;SDS011;75520;43.358;19.362;2024-02-21T02:20:38;52.35;;;24.35;;
85152;SDS011;75520;43.358;19.362;2024-02-21T02:25:35;69.78;;;33.38;;
85152;SDS011;75520;43.358;19.362;2024-02-21T02:28:02;61.58;;;29.23;;
85152;SDS011;75520;43.358;19.362;2024-02-21T02:30:28;50.75;;;24.35;;
85152;SDS011;75520;43.358;19.362;2024-02-21T02:32:56;58.92;;;28.77;;
85152;SDS011;75520;43.358;19.362;2024-02-21T02:35:22;59.08;;;28.55;;
85152;SDS011;75520;43.358;19.362;2024-02-21T02:37:48;57.25;;;26.85;;
85152;SDS011;75520;43.358;19.362;2024-02-21T02:40:14;54.63;;;25.52;;
85152;SDS011;75520;43.358;19.362;2024-02-21T02:42:40;53.85;;;25.73;;
85152;SDS011;75520;43.358;19.362;2024-02-21T02:45:05;48.80;;;25.55;;
85152;SDS011;75520;43.358;19.362;2024-02-21T02:47:31;46.88;;;24.67;;
85152;SDS011;75520;43.358;19.362;2024-02-21T02:49:57;51.38;;;23.92;;
85152;SDS011;75520;43.358;19.362;2024-02-21T02:52:23;53.10;;;25.00;;
85152;SDS011;75520;43.358;19.362;2024-02-21T02:54:48;50.38;;;25.02;;
85152;SDS011;75520;43.358;19.362;2024-02-21T02:57:17;53.03;;;25.02;;
85152;SDS011;75520;43.358;19.362;2024-02-21T02:59:47;46.13;;;22.77;;
85152;SDS011;75520;43.358;19.362;2024-02-21T03:04:39;47.63;;;21.87;;
85152;SDS011;75520;43.358;19.362;2024-02-21T03:07:06;43.47;;;20.95;;
85152;SDS011;75520;43.358;19.362;2024-02-21T03:09:31;41.42;;;22.77;;
85152;SDS011;75520;43.358;19.362;2024-02-21T03:11:57;38.72;;;20.98;;
85152;SDS011;75520;43.358;19.362;2024-02-21T03:14:28;37.88;;;18.65;;
85152;SDS011;75520;43.358;19.362;2024-02-21T03:16:53;33.20;;;15.95;;
85152;SDS011;75520;43.358;19.362;2024-02-21T03:19:19;27.98;;;14.40;;
85152;SDS011;75520;43.358;19.362;2024-02-21T03:21:45;35.20;;;17.23;;
85152;SDS011;75520;43.358;19.362;2024-02-21T03:24:10;31.73;;;17.67;;
85152;SDS011;75520;43.358;19.362;2024-02-21T03:26:36;46.20;;;24.73;;
85152;SDS011;75520;43.358;19.362;2024-02-21T03:29:01;63.88;;;29.10;;
85152;SDS011;75520;43.358;19.362;2024-02-21T03:31:28;49.08;;;23.80;;
85152;SDS011;75520;43.358;19.362;2024-02-21T03:33:53;42.03;;;20.45;;
85152;SDS011;75520;43.358;19.362;2024-02-21T03:36:19;47.28;;;21.70;;
85152;SDS011;75520;43.358;19.362;2024-02-21T03:38:44;44.10;;;22.08;;
85152;SDS011;75520;43.358;19.362;2024-02-21T03:41:10;43.33;;;21.80;;
85152;SDS011;75520;43.358;19.362;2024-02-21T03:43:37;38.55;;;20.10;;
85152;SDS011;75520;43.358;19.362;2024-02-21T03:46:03;36.63;;;18.77;;
85152;SDS011;75520;43.358;19.362;2024-02-21T03:48:28;39.15;;;19.98;;
85152;SDS011;75520;43.358;19.362;2024-02-21T03:50:54;39.65;;;20.52;;
85152;SDS011;75520;43.358;19.362;2024-02-21T03:53:19;42.65;;;21.10;;
85152;SDS011;75520;43.358;19.362;2024-02-21T03:55:45;47.65;;;22.73;;
85152;SDS011;75520;43.358;19.362;2024-02-21T03:58:10;46.20;;;23.27;;
85152;SDS011;75520;43.358;19.362;2024-02-21T04:00:36;52.67;;;23.58;;
85152;SDS011;75520;43.358;19.362;2024-02-21T04:03:01;46.42;;;24.50;;
85152;SDS011;75520;43.358;19.362;2024-02-21T04:05:27;48.70;;;22.40;;
85152;SDS011;75520;43.358;19.362;2024-02-21T04:07:53;42.13;;;20.75;;
85152;SDS011;75520;43.358;19.362;2024-02-21T04:10:19;39.55;;;18.38;;
85152;SDS011;75520;43.358;19.362;2024-02-21T04:12:44;41.55;;;20.02;;
85152;SDS011;75520;43.358;19.362;2024-02-21T04:15:10;41.97;;;21.27;;
85152;SDS011;75520;43.358;19.362;2024-02-21T04:17:36;49.42;;;22.63;;
85152;SDS011;75520;43.358;19.362;2024-02-21T04:20:05;46.85;;;23.25;;
85152;SDS011;75520;43.358;19.362;2024-02-21T04:22:32;46.15;;;21.38;;
85152;SDS011;75520;43.358;19.362;2024-02-21T04:25:02;51.95;;;24.42;;
85152;SDS011;75520;43.358;19.362;2024-02-21T04:27:27;59.35;;;27.13;;
85152;SDS011;75520;43.358;19.362;2024-02-21T04:29:53;55.25;;;23.05;;
85152;SDS011;75520;43.358;19.362;2024-02-21T04:32:19;49.35;;;23.27;;
85152;SDS011;75520;43.358;19.362;2024-02-21T04:34:44;36.20;;;18.33;;
85152;SDS011;75520;43.358;19.362;2024-02-21T04:37:10;35.90;;;15.55;;
85152;SDS011;75520;43.358;19.362;2024-02-21T04:39:35;33.50;;;14.57;;
85152;SDS011;75520;43.358;19.362;2024-02-21T04:42:01;30.80;;;14.63;;
85152;SDS011;75520;43.358;19.362;2024-02-21T04:44:26;45.13;;;17.83;;
85152;SDS011;75520;43.358;19.362;2024-02-21T04:46:52;40.40;;;17.00;;
85152;SDS011;75520;43.358;19.362;2024-02-21T04:49:20;42.25;;;18.40;;
85152;SDS011;75520;43.358;19.362;2024-02-21T04:51:45;40.10;;;18.35;;
85152;SDS011;75520;43.358;19.362;2024-02-21T04:54:11;50.20;;;20.35;;
85152;SDS011;75520;43.358;19.362;2024-02-21T04:56:36;38.03;;;17.55;;
85152;SDS011;75520;43.358;19.362;2024-02-21T04:59:02;34.17;;;16.00;;
85152;SDS011;75520;43.358;19.362;2024-02-21T05:01:30;31.65;;;15.30;;
85152;SDS011;75520;43.358;19.362;2024-02-21T05:03:56;32.53;;;16.00;;
85152;SDS011;75520;43.358;19.362;2024-02-21T05:06:22;40.25;;;18.70;;
85152;SDS011;75520;43.358;19.362;2024-02-21T05:08:47;42.47;;;19.45;;
85152;SDS011;75520;43.358;19.362;2024-02-21T05:11:13;42.88;;;18.90;;
85152;SDS011;75520;43.358;19.362;2024-02-21T05:13:38;47.70;;;20.50;;
85152;SDS011;75520;43.358;19.362;2024-02-21T05:16:04;49.33;;;23.73;;
85152;SDS011;75520;43.358;19.362;2024-02-21T05:18:30;49.47;;;21.33;;
85152;SDS011;75520;43.358;19.362;2024-02-21T05:20:55;51.13;;;23.27;;
85152;SDS011;75520;43.358;19.362;2024-02-21T05:23:21;53.33;;;23.88;;
85152;SDS011;75520;43.358;19.362;2024-02-21T05:25:46;59.22;;;23.73;;
85152;SDS011;75520;43.358;19.362;2024-02-21T05:28:12;59.13;;;25.65;;
85152;SDS011;75520;43.358;19.362;2024-02-21T05:30:37;58.08;;;26.52;;
85152;SDS011;75520;43.358;19.362;2024-02-21T05:33:03;50.58;;;23.73;;
85152;SDS011;75520;43.358;19.362;2024-02-21T05:35:30;52.63;;;22.73;;
85152;SDS011;75520;43.358;19.362;2024-02-21T05:37:56;51.58;;;21.23;;
85152;SDS011;75520;43.358;19.362;2024-02-21T05:40:21;52.13;;;23.48;;
85152;SDS011;75520;43.358;19.362;2024-02-21T05:42:47;49.88;;;22.95;;
85152;SDS011;75520;43.358;19.362;2024-02-21T05:45:12;38.53;;;19.48;;
85152;SDS011;75520;43.358;19.362;2024-02-21T05:47:40;39.47;;;19.30;;
85152;SDS011;75520;43.358;19.362;2024-02-21T05:50:06;35.58;;;18.65;;
85152;SDS011;75520;43.358;19.362;2024-02-21T05:52:32;45.08;;;20.05;;
85152;SDS011;75520;43.358;19.362;2024-02-21T05:54:58;58.88;;;27.05;;
85152;SDS011;75520;43.358;19.362;2024-02-21T05:57:23;52.92;;;23.80;;
85152;SDS011;75520;43.358;19.362;2024-02-21T05:59:48;60.90;;;26.20;;
85152;SDS011;75520;43.358;19.362;2024-02-21T06:02:14;55.47;;;25.40;;
85152;SDS011;75520;43.358;19.362;2024-02-21T06:04:39;58.80;;;27.20;;
85152;SDS011;75520;43.358;19.362;2024-02-21T06:07:05;66.00;;;27.35;;
85152;SDS011;75520;43.358;19.362;2024-02-21T06:09:30;81.97;;;37.35;;
85152;SDS011;75520;43.358;19.362;2024-02-21T06:11:57;81.72;;;35.83;;
85152;SDS011;75520;43.358;19.362;2024-02-21T06:14:22;94.22;;;38.33;;
85152;SDS011;75520;43.358;19.362;2024-02-21T06:16:48;89.95;;;38.08;;
85152;SDS011;75520;43.358;19.362;2024-02-21T06:19:13;92.40;;;37.72;;
85152;SDS011;75520;43.358;19.362;2024-02-21T06:21:39;79.40;;;32.53;;
85152;SDS011;75520;43.358;19.362;2024-02-21T06:24:04;76.53;;;35.30;;
85152;SDS011;75520;43.358;19.362;2024-02-21T06:26:30;76.03;;;32.25;;
85152;SDS011;75520;43.358;19.362;2024-02-21T06:28:55;86.07;;;35.75;;
85152;SDS011;75520;43.358;19.362;2024-02-21T06:31:21;71.93;;;31.20;;
85152;SDS011;75520;43.358;19.362;2024-02-21T06:33:46;81.22;;;32.90;;
85152;SDS011;75520;43.358;19.362;2024-02-21T06:36:12;84.55;;;32.47;;
85152;SDS011;75520;43.358;19.362;2024-02-21T06:38:38;93.93;;;36.80;;
85152;SDS011;75520;43.358;19.362;2024-02-21T06:41:04;94.13;;;36.33;;
85152;SDS011;75520;43.358;19.362;2024-02-21T06:43:30;104.38;;;38.72;;
85152;SDS011;75520;43.358;19.362;2024-02-21T06:45:56;125.63;;;46.17;;
85152;SDS011;75520;43.358;19.362;2024-02-21T06:48:22;107.55;;;45.22;;
85152;SDS011;75520;43.358;19.362;2024-02-21T06:50:47;116.93;;;47.58;;
85152;SDS011;75520;43.358;19.362;2024-02-21T06:53:13;98.63;;;41.03;;
85152;SDS011;75520;43.358;19.362;2024-02-21T06:55:38;87.65;;;36.60;;
85152;SDS011;75520;43.358;19.362;2024-02-21T06:58:05;91.90;;;38.38;;
85152;SDS011;75520;43.358;19.362;2024-02-21T07:00:33;93.55;;;36.13;;
85152;SDS011;75520;43.358;19.362;2024-02-21T07:02:59;108.97;;;43.83;;
85152;SDS011;75520;43.358;19.362;2024-02-21T07:05:24;77.10;;;34.15;;
85152;SDS011;75520;43.358;19.362;2024-02-21T07:07:50;77.40;;;31.55;;
85152;SDS011;75520;43.358;19.362;2024-02-21T07:10:15;87.75;;;36.63;;
85152;SDS011;75520;43.358;19.362;2024-02-21T07:12:40;99.88;;;39.30;;
85152;SDS011;75520;43.358;19.362;2024-02-21T07:15:08;107.85;;;40.70;;
85152;SDS011;75520;43.358;19.362;2024-02-21T07:17:34;92.40;;;41.90;;
85152;SDS011;75520;43.358;19.362;2024-02-21T07:19:59;108.70;;;44.67;;
85152;SDS011;75520;43.358;19.362;2024-02-21T07:22:26;101.65;;;39.58;;
85152;SDS011;75520;43.358;19.362;2024-02-21T07:24:52;80.65;;;30.92;;
85152;SDS011;75520;43.358;19.362;2024-02-21T07:27:17;80.50;;;31.90;;
85152;SDS011;75520;43.358;19.362;2024-02-21T07:29:43;78.65;;;34.25;;
85152;SDS011;75520;43.358;19.362;2024-02-21T07:32:12;55.40;;;22.63;;
85152;SDS011;75520;43.358;19.362;2024-02-21T07:34:38;50.28;;;23.08;;
85152;SDS011;75520;43.358;19.362;2024-02-21T07:37:03;63.85;;;32.08;;
85152;SDS011;75520;43.358;19.362;2024-02-21T07:39:29;72.13;;;30.25;;
85152;SDS011;75520;43.358;19.362;2024-02-21T07:41:54;49.25;;;19.85;;
85152;SDS011;75520;43.358;19.362;2024-02-21T07:44:20;49.60;;;19.02;;
85152;SDS011;75520;43.358;19.362;2024-02-21T07:46:45;51.10;;;21.77;;
85152;SDS011;75520;43.358;19.362;2024-02-21T07:49:11;50.35;;;22.35;;
85152;SDS011;75520;43.358;19.362;2024-02-21T07:51:36;56.88;;;23.48;;
85152;SDS011;75520;43.358;19.362;2024-02-21T07:54:01;59.33;;;24.55;;
85152;SDS011;75520;43.358;19.362;2024-02-21T07:56:29;66.60;;;28.45;;
85152;SDS011;75520;43.358;19.362;2024-02-21T07:58:54;71.38;;;26.75;;
85152;SDS011;75520;43.358;19.362;2024-02-21T08:01:20;69.93;;;27.33;;
85152;SDS011;75520;43.358;19.362;2024-02-21T08:03:46;68.20;;;29.85;;
85152;SDS011;75520;43.358;19.362;2024-02-21T08:06:12;72.03;;;29.95;;
85152;SDS011;75520;43.358;19.362;2024-02-21T08:08:39;74.82;;;31.50;;
85152;SDS011;75520;43.358;19.362;2024-02-21T08:11:04;70.43;;;28.02;;
85152;SDS011;75520;43.358;19.362;2024-02-21T08:13:30;66.18;;;30.15;;
85152;SDS011;75520;43.358;19.362;2024-02-21T08:15:56;71.97;;;29.45;;
85152;SDS011;75520;43.358;19.362;2024-02-21T08:18:22;64.45;;;30.55;;
85152;SDS011;75520;43.358;19.362;2024-02-21T08:20:48;67.95;;;29.58;;
85152;SDS011;75520;43.358;19.362;2024-02-21T08:23:18;48.65;;;22.33;;
85152;SDS011;75520;43.358;19.362;2024-02-21T08:25:44;56.97;;;27.02;;
85152;SDS011;75520;43.358;19.362;2024-02-21T08:28:09;57.25;;;25.58;;
85152;SDS011;75520;43.358;19.362;2024-02-21T08:30:35;50.67;;;22.67;;
85152;SDS011;75520;43.358;19.362;2024-02-21T08:33:00;45.13;;;19.27;;
85152;SDS011;75520;43.358;19.362;2024-02-21T08:35:26;56.20;;;28.45;;
85152;SDS011;75520;43.358;19.362;2024-02-21T08:37:52;61.92;;;26.90;;
85152;SDS011;75520;43.358;19.362;2024-02-21T08:40:17;56.63;;;25.55;;
85152;SDS011;75520;43.358;19.362;2024-02-21T08:42:45;61.05;;;29.83;;
85152;SDS011;75520;43.358;19.362;2024-02-21T08:45:11;53.45;;;25.05;;
85152;SDS011;75520;43.358;19.362;2024-02-21T08:47:39;47.80;;;22.13;;
85152;SDS011;75520;43.358;19.362;2024-02-21T08:50:06;53.70;;;25.58;;
85152;SDS011;75520;43.358;19.362;2024-02-21T08:52:32;46.00;;;22.58;;
85152;SDS011;75520;43.358;19.362;2024-02-21T08:54:57;50.90;;;22.63;;
85152;SDS011;75520;43.358;19.362;2024-02-21T08:57:23;42.38;;;20.85;;
85152;SDS011;75520;43.358;19.362;2024-02-21T08:59:48;66.93;;;34.30;;
85152;SDS011;75520;43.358;19.362;2024-02-21T09:02:14;62.47;;;29.92;;
85152;SDS011;75520;43.358;19.362;2024-02-21T09:04:42;88.00;;;35.35;;
85152;SDS011;75520;43.358;19.362;2024-02-21T09:07:11;80.82;;;34.28;;
85152;SDS011;75520;43.358;19.362;2024-02-21T09:09:37;65.60;;;27.75;;
85152;SDS011;75520;43.358;19.362;2024-02-21T09:12:05;69.85;;;28.95;;
85152;SDS011;75520;43.358;19.362;2024-02-21T09:14:32;71.45;;;31.38;;
85152;SDS011;75520;43.358;19.362;2024-02-21T09:16:58;81.30;;;37.40;;
85152;SDS011;75520;43.358;19.362;2024-02-21T09:19:23;65.53;;;31.00;;
85152;SDS011;75520;43.358;19.362;2024-02-21T09:21:49;72.55;;;36.42;;
85152;SDS011;75520;43.358;19.362;2024-02-21T09:24:14;61.05;;;28.15;;
85152;SDS011;75520;43.358;19.362;2024-02-21T09:26:40;59.70;;;28.13;;
85152;SDS011;75520;43.358;19.362;2024-02-21T09:29:05;62.65;;;29.65;;
85152;SDS011;75520;43.358;19.362;2024-02-21T09:31:31;71.00;;;31.92;;
85152;SDS011;75520;43.358;19.362;2024-02-21T09:33:57;68.78;;;31.88;;
85152;SDS011;75520;43.358;19.362;2024-02-21T09:36:22;60.75;;;29.05;;
85152;SDS011;75520;43.358;19.362;2024-02-21T09:38:48;57.83;;;27.45;;
85152;SDS011;75520;43.358;19.362;2024-02-21T09:41:17;60.72;;;29.25;;
85152;SDS011;75520;43.358;19.362;2024-02-21T09:46:16;51.60;;;26.52;;
85152;SDS011;75520;43.358;19.362;2024-02-21T09:51:50;49.88;;;21.95;;
85152;SDS011;75520;43.358;19.362;2024-02-21T09:54:18;34.03;;;16.13;;
85152;SDS011;75520;43.358;19.362;2024-02-21T09:56:46;40.08;;;19.67;;
85152;SDS011;75520;43.358;19.362;2024-02-21T09:59:13;34.15;;;16.42;;
85152;SDS011;75520;43.358;19.362;2024-02-21T10:01:41;31.48;;;16.10;;
85152;SDS011;75520;43.358;19.362;2024-02-21T10:04:08;34.53;;;17.13;;
85152;SDS011;75520;43.358;19.362;2024-02-21T10:06:34;33.65;;;17.20;;
85152;SDS011;75520;43.358;19.362;2024-02-21T10:09:02;33.92;;;18.48;;
85152;SDS011;75520;43.358;19.362;2024-02-21T10:11:28;38.47;;;18.38;;
85152;SDS011;75520;43.358;19.362;2024-02-21T10:14:06;39.72;;;21.30;;
85152;SDS011;75520;43.358;19.362;2024-02-21T10:16:32;44.45;;;22.02;;
85152;SDS011;75520;43.358;19.362;2024-02-21T10:18:58;48.47;;;24.42;;
85152;SDS011;75520;43.358;19.362;2024-02-21T10:21:24;49.95;;;22.52;;
85152;SDS011;75520;43.358;19.362;2024-02-21T10:23:50;48.58;;;23.67;;
85152;SDS011;75520;43.358;19.362;2024-02-21T10:26:19;51.88;;;25.67;;
85152;SDS011;75520;43.358;19.362;2024-02-21T10:28:49;57.10;;;28.13;;
85152;SDS011;75520;43.358;19.362;2024-02-21T10:33:59;62.50;;;29.80;;
85152;SDS011;75520;43.358;19.362;2024-02-21T10:36:28;41.55;;;22.85;;
85152;SDS011;75520;43.358;19.362;2024-02-21T10:38:54;48.92;;;23.88;;
85152;SDS011;75520;43.358;19.362;2024-02-21T10:41:20;57.78;;;26.98;;
85152;SDS011;75520;43.358;19.362;2024-02-21T10:43:49;45.53;;;23.98;;
85152;SDS011;75520;43.358;19.362;2024-02-21T10:46:18;43.55;;;22.58;;
85152;SDS011;75520;43.358;19.362;2024-02-21T10:48:45;50.90;;;25.67;;
85152;SDS011;75520;43.358;19.362;2024-02-21T10:51:16;59.72;;;31.92;;
85152;SDS011;75520;43.358;19.362;2024-02-21T10:56:35;34.00;;;16.42;;
85152;SDS011;75520;43.358;19.362;2024-02-21T10:59:05;44.67;;;22.17;;
85152;SDS011;75520;43.358;19.362;2024-02-21T11:01:31;18.85;;;9.82;;
85152;SDS011;75520;43.358;19.362;2024-02-21T11:04:01;19.42;;;9.52;;
85152;SDS011;75520;43.358;19.362;2024-02-21T11:06:29;17.48;;;9.13;;
85152;SDS011;75520;43.358;19.362;2024-02-21T11:11:28;12.95;;;7.43;;
85152;SDS011;75520;43.358;19.362;2024-02-21T11:14:03;18.55;;;9.15;;
85152;SDS011;75520;43.358;19.362;2024-02-21T11:16:39;22.38;;;12.43;;
85152;SDS011;75520;43.358;19.362;2024-02-21T11:19:22;32.90;;;14.82;;
85152;SDS011;75520;43.358;19.362;2024-02-21T11:21:49;11.85;;;8.13;;
85152;SDS011;75520;43.358;19.362;2024-02-21T11:24:28;19.65;;;11.32;;
85152;SDS011;75520;43.358;19.362;2024-02-21T11:26:55;16.33;;;9.75;;
85152;SDS011;75520;43.358;19.362;2024-02-21T11:29:24;47.30;;;22.05;;
85152;SDS011;75520;43.358;19.362;2024-02-21T11:31:53;18.20;;;10.52;;
85152;SDS011;75520;43.358;19.362;2024-02-21T11:34:20;13.55;;;7.45;;
85152;SDS011;75520;43.358;19.362;2024-02-21T11:36:46;12.15;;;7.35;;
85152;SDS011;75520;43.358;19.362;2024-02-21T11:39:17;14.82;;;8.18;;
85152;SDS011;75520;43.358;19.362;2024-02-21T11:42:04;13.70;;;8.38;;
85152;SDS011;75520;43.358;19.362;2024-02-21T11:44:32;16.30;;;9.82;;
85152;SDS011;75520;43.358;19.362;2024-02-21T11:46:59;19.42;;;11.15;;
85152;SDS011;75520;43.358;19.362;2024-02-21T11:49:25;17.95;;;9.80;;
85152;SDS011;75520;43.358;19.362;2024-02-21T11:52:00;18.38;;;11.00;;
85152;SDS011;75520;43.358;19.362;2024-02-21T11:54:27;11.27;;;6.53;;
85152;SDS011;75520;43.358;19.362;2024-02-21T11:56:53;12.73;;;7.03;;
85152;SDS011;75520;43.358;19.362;2024-02-21T11:59:19;20.23;;;11.25;;
85152;SDS011;75520;43.358;19.362;2024-02-21T12:01:44;14.90;;;7.57;;
85152;SDS011;75520;43.358;19.362;2024-02-21T12:04:10;13.80;;;7.95;;
85152;SDS011;75520;43.358;19.362;2024-02-21T12:06:35;20.63;;;11.57;;
85152;SDS011;75520;43.358;19.362;2024-02-21T12:09:01;13.80;;;6.78;;
85152;SDS011;75520;43.358;19.362;2024-02-21T12:11:27;13.40;;;6.97;;
85152;SDS011;75520;43.358;19.362;2024-02-21T12:14:02;13.50;;;7.90;;
85152;SDS011;75520;43.358;19.362;2024-02-21T12:16:30;11.95;;;7.22;;
85152;SDS011;75520;43.358;19.362;2024-02-21T12:18:59;14.38;;;7.93;;
85152;SDS011;75520;43.358;19.362;2024-02-21T12:21:32;10.43;;;5.32;;
85152;SDS011;75520;43.358;19.362;2024-02-21T12:24:23;12.45;;;6.90;;
85152;SDS011;75520;43.358;19.362;2024-02-21T12:26:52;11.88;;;6.30;;
85152;SDS011;75520;43.358;19.362;2024-02-21T12:31:44;9.35;;;5.47;;
85152;SDS011;75520;43.358;19.362;2024-02-21T12:34:10;15.55;;;9.23;;
85152;SDS011;75520;43.358;19.362;2024-02-21T12:36:40;14.95;;;8.82;;
85152;SDS011;75520;43.358;19.362;2024-02-21T12:39:10;12.10;;;6.43;;
85152;SDS011;75520;43.358;19.362;2024-02-21T12:41:36;14.10;;;7.78;;
85152;SDS011;75520;43.358;19.362;2024-02-21T12:44:09;11.40;;;6.93;;
85152;SDS011;75520;43.358;19.362;2024-02-21T12:46:39;14.75;;;6.85;;
85152;SDS011;75520;43.358;19.362;2024-02-21T12:49:05;13.18;;;6.38;;
85152;SDS011;75520;43.358;19.362;2024-02-21T12:51:33;11.20;;;6.68;;
85152;SDS011;75520;43.358;19.362;2024-02-21T12:53:58;11.40;;;6.85;;
85152;SDS011;75520;43.358;19.362;2024-02-21T12:56:24;13.15;;;6.97;;
85152;SDS011;75520;43.358;19.362;2024-02-21T12:58:53;12.40;;;6.47;;
85152;SDS011;75520;43.358;19.362;2024-02-21T13:01:19;12.52;;;7.55;;
85152;SDS011;75520;43.358;19.362;2024-02-21T13:03:46;10.70;;;6.32;;
85152;SDS011;75520;43.358;19.362;2024-02-21T13:06:11;10.00;;;6.03;;
85152;SDS011;75520;43.358;19.362;2024-02-21T13:08:37;8.50;;;5.72;;
85152;SDS011;75520;43.358;19.362;2024-02-21T13:11:04;14.75;;;8.50;;
85152;SDS011;75520;43.358;19.362;2024-02-21T13:13:30;12.50;;;7.25;;
85152;SDS011;75520;43.358;19.362;2024-02-21T13:15:56;21.05;;;11.82;;
85152;SDS011;75520;43.358;19.362;2024-02-21T13:20:50;10.50;;;6.32;;
85152;SDS011;75520;43.358;19.362;2024-02-21T13:23:16;11.73;;;6.50;;
85152;SDS011;75520;43.358;19.362;2024-02-21T13:25:42;8.82;;;6.35;;
85152;SDS011;75520;43.358;19.362;2024-02-21T13:28:09;10.32;;;6.88;;
85152;SDS011;75520;43.358;19.362;2024-02-21T13:30:34;12.48;;;8.35;;
85152;SDS011;75520;43.358;19.362;2024-02-21T13:33:00;9.13;;;5.00;;
85152;SDS011;75520;43.358;19.362;2024-02-21T13:35:25;9.10;;;5.60;;
85152;SDS011;75520;43.358;19.362;2024-02-21T13:37:53;9.65;;;5.30;;
85152;SDS011;75520;43.358;19.362;2024-02-21T13:40:18;7.53;;;5.25;;
85152;SDS011;75520;43.358;19.362;2024-02-21T13:42:44;10.68;;;6.40;;
85152;SDS011;75520;43.358;19.362;2024-02-21T13:45:09;13.02;;;7.35;;
85152;SDS011;75520;43.358;19.362;2024-02-21T13:47:35;7.57;;;5.65;;
85152;SDS011;75520;43.358;19.362;2024-02-21T13:50:06;9.93;;;5.93;;
85152;SDS011;75520;43.358;19.362;2024-02-21T13:52:36;10.10;;;4.78;;
85152;SDS011;75520;43.358;19.362;2024-02-21T13:55:03;6.22;;;4.30;;
85152;SDS011;75520;43.358;19.362;2024-02-21T13:57:28;8.77;;;5.28;;
85152;SDS011;75520;43.358;19.362;2024-02-21T13:59:54;7.65;;;5.28;;
85152;SDS011;75520;43.358;19.362;2024-02-21T14:02:20;9.63;;;6.38;;
85152;SDS011;75520;43.358;19.362;2024-02-21T14:04:46;11.70;;;6.22;;
85152;SDS011;75520;43.358;19.362;2024-02-21T14:07:12;11.57;;;5.60;;
85152;SDS011;75520;43.358;19.362;2024-02-21T14:09:37;10.30;;;6.20;;
85152;SDS011;75520;43.358;19.362;2024-02-21T14:12:03;15.20;;;8.98;;
85152;SDS011;75520;43.358;19.362;2024-02-21T14:14:36;14.35;;;8.02;;
85152;SDS011;75520;43.358;19.362;2024-02-21T14:17:02;13.70;;;8.32;;
85152;SDS011;75520;43.358;19.362;2024-02-21T14:19:28;11.80;;;7.07;;
85152;SDS011;75520;43.358;19.362;2024-02-21T14:21:54;6.70;;;4.50;;
85152;SDS011;75520;43.358;19.362;2024-02-21T14:24:19;8.20;;;4.88;;
85152;SDS011;75520;43.358;19.362;2024-02-21T14:26:45;10.07;;;5.28;;
85152;SDS011;75520;43.358;19.362;2024-02-21T14:29:10;8.70;;;5.82;;
85152;SDS011;75520;43.358;19.362;2024-02-21T14:31:37;10.55;;;6.50;;
85152;SDS011;75520;43.358;19.362;2024-02-21T14:34:03;15.65;;;9.20;;
85152;SDS011;75520;43.358;19.362;2024-02-21T14:36:28;11.90;;;7.05;;